sensor_id;sensor_type;location;lat;lon;timestamp;P1;durP1;ratioP1;P2;durP2;ratioP2
50803;SDS011;37205;51.434;6.756;2024-03-23T00:52:17;7.82;;;2.65;;
50803;SDS011;37205;51.434;6.756;2024-03-23T00:54:42;9.77;;;2.88;;
50803;SDS011;37205;51.434;6.756;2024-03-23T00:57:08;11.25;;;3.05;;
50803;SDS011;37205;51.434;6.756;2024-03-23T00:59:33;10.25;;;2.70;;
50803;SDS011;37205;51.434;6.756;2024-03-23T01:01:59;13.00;;;3.90;;
50803;SDS011;37205;51.434;6.756;2024-03-23T01:04:24;10.50;;;3.10;;
50803;SDS011;37205;51.434;6.756;2024-03-23T01:06:50;9.65;;;2.63;;
50803;SDS011;37205;51.434;6.756;2024-03-23T01:09:15;10.77;;;2.47;;
50803;SDS011;37205;51.434;6.756;2024-03-23T01:11:41;11.50;;;3.10;;
50803;SDS011;37205;51.434;6.756;2024-03-23T01:14:06;7.68;;;2.83;;
50803;SDS011;37205;51.434;6.756;2024-03-23T01:16:32;8.35;;;2.50;;
50803;SDS011;37205;51.434;6.756;2024-03-23T01:18:58;10.52;;;3.35;;
50803;SDS011;37205;51.434;6.756;2024-03-23T01:21:23;8.00;;;2.40;;
50803;SDS011;37205;51.434;6.756;2024-03-23T01:23:49;8.27;;;2.83;;
50803;SDS011;37205;51.434;6.756;2024-03-23T01:26:14;12.30;;;3.15;;
50803;SDS011;37205;51.434;6.756;2024-03-23T01:28:40;9.30;;;3.03;;
50803;SDS011;37205;51.434;6.756;2024-03-23T01:31:06;9.90;;;3.05;;
50803;SDS011;37205;51.434;6.756;2024-03-23T01:33:31;9.82;;;2.88;;
50803;SDS011;37205;51.434;6.756;2024-03-23T01:35:57;10.50;;;2.75;;
50803;SDS011;37205;51.434;6.756;2024-03-23T01:38:22;11.25;;;3.00;;
50803;SDS011;37205;51.434;6.756;2024-03-23T01:40:48;8.32;;;2.72;;
50803;SDS011;37205;51.434;6.756;2024-03-23T01:43:14;9.10;;;2.30;;
50803;SDS011;37205;51.434;6.756;2024-03-23T01:45:39;11.77;;;3.10;;
50803;SDS011;37205;51.434;6.756;2024-03-23T01:48:05;9.45;;;3.00;;
50803;SDS011;37205;51.434;6.756;2024-03-23T01:50:31;11.90;;;3.17;;
50803;SDS011;37205;51.434;6.756;2024-03-23T01:53:01;14.77;;;3.58;;
50803;SDS011;37205;51.434;6.756;2024-03-23T01:55:29;10.15;;;3.25;;
50803;SDS011;37205;51.434;6.756;2024-03-23T01:57:56;10.15;;;3.55;;
50803;SDS011;37205;51.434;6.756;2024-03-23T02:00:22;8.48;;;3.35;;
50803;SDS011;37205;51.434;6.756;2024-03-23T02:02:48;9.40;;;3.33;;
50803;SDS011;37205;51.434;6.756;2024-03-23T02:05:14;11.68;;;3.92;;
50803;SDS011;37205;51.434;6.756;2024-03-23T02:07:40;12.73;;;3.22;;
50803;SDS011;37205;51.434;6.756;2024-03-23T02:10:08;12.18;;;3.08;;
50803;SDS011;37205;51.434;6.756;2024-03-23T02:12:35;11.48;;;3.25;;
50803;SDS011;37205;51.434;6.756;2024-03-23T02:15:01;13.05;;;3.28;;
50803;SDS011;37205;51.434;6.756;2024-03-23T02:17:28;8.75;;;3.50;;
50803;SDS011;37205;51.434;6.756;2024-03-23T02:19:55;11.23;;;3.22;;
50803;SDS011;37205;51.434;6.756;2024-03-23T02:22:21;11.38;;;3.33;;
50803;SDS011;37205;51.434;6.756;2024-03-23T02:24:46;8.55;;;2.55;;
50803;SDS011;37205;51.434;6.756;2024-03-23T02:27:12;10.23;;;2.88;;
50803;SDS011;37205;51.434;6.756;2024-03-23T02:29:37;14.00;;;3.22;;
50803;SDS011;37205;51.434;6.756;2024-03-23T02:32:03;10.73;;;2.90;;
50803;SDS011;37205;51.434;6.756;2024-03-23T02:34:29;12.10;;;3.47;;
50803;SDS011;37205;51.434;6.756;2024-03-23T02:36:54;11.93;;;3.05;;
50803;SDS011;37205;51.434;6.756;2024-03-23T02:39:20;9.75;;;2.78;;
50803;SDS011;37205;51.434;6.756;2024-03-23T02:41:45;13.40;;;4.97;;
50803;SDS011;37205;51.434;6.756;2024-03-23T02:44:12;13.23;;;6.80;;
50803;SDS011;37205;51.434;6.756;2024-03-23T02:46:38;13.45;;;7.00;;
50803;SDS011;37205;51.434;6.756;2024-03-23T02:49:04;20.85;;;7.20;;
50803;SDS011;37205;51.434;6.756;2024-03-23T02:51:30;12.20;;;4.97;;
50803;SDS011;37205;51.434;6.756;2024-03-23T02:53:55;9.90;;;3.80;;
50803;SDS011;37205;51.434;6.756;2024-03-23T02:56:21;12.38;;;2.90;;
50803;SDS011;37205;51.434;6.756;2024-03-23T02:58:47;10.23;;;2.53;;
50803;SDS011;37205;51.434;6.756;2024-03-23T03:01:12;9.43;;;3.00;;
50803;SDS011;37205;51.434;6.756;2024-03-23T03:03:38;12.90;;;2.83;;
50803;SDS011;37205;51.434;6.756;2024-03-23T03:06:03;7.97;;;2.60;;
50803;SDS011;37205;51.434;6.756;2024-03-23T03:08:29;10.68;;;2.78;;
50803;SDS011;37205;51.434;6.756;2024-03-23T03:10:55;10.13;;;3.15;;
50803;SDS011;37205;51.434;6.756;2024-03-23T03:13:20;12.38;;;3.08;;
50803;SDS011;37205;51.434;6.756;2024-03-23T03:15:46;11.70;;;2.85;;
50803;SDS011;37205;51.434;6.756;2024-03-23T03:18:12;15.27;;;2.30;;
50803;SDS011;37205;51.434;6.756;2024-03-23T03:20:40;10.68;;;3.13;;
50803;SDS011;37205;51.434;6.756;2024-03-23T03:23:06;10.48;;;2.65;;
50803;SDS011;37205;51.434;6.756;2024-03-23T03:25:32;10.10;;;3.40;;
50803;SDS011;37205;51.434;6.756;2024-03-23T03:27:57;7.95;;;2.90;;
50803;SDS011;37205;51.434;6.756;2024-03-23T03:30:23;13.77;;;3.40;;
50803;SDS011;37205;51.434;6.756;2024-03-23T03:32:49;13.85;;;3.42;;
50803;SDS011;37205;51.434;6.756;2024-03-23T03:35:15;8.73;;;2.95;;
50803;SDS011;37205;51.434;6.756;2024-03-23T03:37:40;9.05;;;2.88;;
50803;SDS011;37205;51.434;6.756;2024-03-23T03:40:06;10.85;;;2.88;;
50803;SDS011;37205;51.434;6.756;2024-03-23T03:42:33;13.10;;;3.10;;
50803;SDS011;37205;51.434;6.756;2024-03-23T03:44:59;10.32;;;2.83;;
50803;SDS011;37205;51.434;6.756;2024-03-23T03:47:25;10.07;;;2.50;;
50803;SDS011;37205;51.434;6.756;2024-03-23T03:49:50;13.32;;;2.90;;
50803;SDS011;37205;51.434;6.756;2024-03-23T03:52:16;7.18;;;2.53;;
50803;SDS011;37205;51.434;6.756;2024-03-23T03:54:42;9.52;;;3.05;;
50803;SDS011;37205;51.434;6.756;2024-03-23T03:57:08;13.20;;;3.35;;
50803;SDS011;37205;51.434;6.756;2024-03-23T03:59:33;9.68;;;2.80;;
50803;SDS011;37205;51.434;6.756;2024-03-23T04:01:59;12.73;;;2.70;;
50803;SDS011;37205;51.434;6.756;2024-03-23T04:04:25;10.52;;;2.83;;
50803;SDS011;37205;51.434;6.756;2024-03-23T04:06:50;11.18;;;2.72;;
50803;SDS011;37205;51.434;6.756;2024-03-23T04:09:24;12.40;;;3.40;;
50803;SDS011;37205;51.434;6.756;2024-03-23T04:11:49;9.57;;;2.88;;
50803;SDS011;37205;51.434;6.756;2024-03-23T04:14:15;14.10;;;3.00;;
50803;SDS011;37205;51.434;6.756;2024-03-23T04:16:40;14.65;;;2.60;;
50803;SDS011;37205;51.434;6.756;2024-03-23T04:19:06;13.15;;;2.90;;
50803;SDS011;37205;51.434;6.756;2024-03-23T04:21:31;11.43;;;2.95;;
50803;SDS011;37205;51.434;6.756;2024-03-23T04:23:57;12.50;;;3.40;;
50803;SDS011;37205;51.434;6.756;2024-03-23T04:26:23;10.93;;;3.50;;
50803;SDS011;37205;51.434;6.756;2024-03-23T04:28:48;9.52;;;4.05;;
50803;SDS011;37205;51.434;6.756;2024-03-23T04:31:14;11.82;;;3.50;;
50803;SDS011;37205;51.434;6.756;2024-03-23T04:33:39;13.05;;;3.85;;
50803;SDS011;37205;51.434;6.756;2024-03-23T04:36:05;11.32;;;4.38;;
50803;SDS011;37205;51.434;6.756;2024-03-23T04:38:32;16.65;;;5.45;;
50803;SDS011;37205;51.434;6.756;2024-03-23T04:40:58;14.13;;;4.40;;
50803;SDS011;37205;51.434;6.756;2024-03-23T04:43:25;13.77;;;4.63;;
50803;SDS011;37205;51.434;6.756;2024-03-23T04:45:51;15.80;;;4.75;;
50803;SDS011;37205;51.434;6.756;2024-03-23T04:48:19;12.30;;;4.15;;
50803;SDS011;37205;51.434;6.756;2024-03-23T04:50:45;14.75;;;4.65;;
50803;SDS011;37205;51.434;6.756;2024-03-23T04:53:10;13.43;;;5.47;;
50803;SDS011;37205;51.434;6.756;2024-03-23T04:55:36;10.13;;;4.75;;
50803;SDS011;37205;51.434;6.756;2024-03-23T04:58:02;18.00;;;5.10;;
50803;SDS011;37205;51.434;6.756;2024-03-23T05:00:28;18.33;;;6.82;;
50803;SDS011;37205;51.434;6.756;2024-03-23T05:02:53;22.17;;;6.20;;
50803;SDS011;37205;51.434;6.756;2024-03-23T05:05:19;19.95;;;6.53;;
50803;SDS011;37205;51.434;6.756;2024-03-23T05:07:44;22.48;;;8.10;;
50803;SDS011;37205;51.434;6.756;2024-03-23T05:10:10;22.23;;;8.60;;
50803;SDS011;37205;51.434;6.756;2024-03-23T05:12:39;18.60;;;6.45;;
50803;SDS011;37205;51.434;6.756;2024-03-23T05:15:05;14.77;;;5.50;;
50803;SDS011;37205;51.434;6.756;2024-03-23T05:17:32;16.63;;;6.18;;
50803;SDS011;37205;51.434;6.756;2024-03-23T05:19:58;16.27;;;6.10;;
50803;SDS011;37205;51.434;6.756;2024-03-23T05:22:24;16.17;;;6.10;;
50803;SDS011;37205;51.434;6.756;2024-03-23T05:24:49;17.92;;;6.68;;
50803;SDS011;37205;51.434;6.756;2024-03-23T05:27:15;20.13;;;6.07;;
50803;SDS011;37205;51.434;6.756;2024-03-23T05:29:40;20.83;;;6.93;;
50803;SDS011;37205;51.434;6.756;2024-03-23T05:32:06;18.85;;;6.93;;
50803;SDS011;37205;51.434;6.756;2024-03-23T05:34:32;18.08;;;7.20;;
50803;SDS011;37205;51.434;6.756;2024-03-23T05:36:58;14.93;;;7.43;;
50803;SDS011;37205;51.434;6.756;2024-03-23T05:39:23;19.17;;;7.28;;
50803;SDS011;37205;51.434;6.756;2024-03-23T05:41:49;14.73;;;6.93;;
50803;SDS011;37205;51.434;6.756;2024-03-23T05:44:14;17.40;;;7.25;;
50803;SDS011;37205;51.434;6.756;2024-03-23T05:46:40;19.80;;;8.05;;
50803;SDS011;37205;51.434;6.756;2024-03-23T05:49:06;21.08;;;7.20;;
50803;SDS011;37205;51.434;6.756;2024-03-23T05:51:32;19.83;;;7.57;;
50803;SDS011;37205;51.434;6.756;2024-03-23T05:53:58;20.70;;;8.48;;
50803;SDS011;37205;51.434;6.756;2024-03-23T05:56:23;19.50;;;8.10;;
50803;SDS011;37205;51.434;6.756;2024-03-23T05:58:51;18.30;;;8.38;;
50803;SDS011;37205;51.434;6.756;2024-03-23T06:01:16;18.27;;;7.63;;
50803;SDS011;37205;51.434;6.756;2024-03-23T06:03:42;19.20;;;7.47;;
50803;SDS011;37205;51.434;6.756;2024-03-23T06:06:08;19.45;;;7.15;;
50803;SDS011;37205;51.434;6.756;2024-03-23T06:08:36;18.00;;;7.75;;
50803;SDS011;37205;51.434;6.756;2024-03-23T06:11:02;16.42;;;7.32;;
50803;SDS011;37205;51.434;6.756;2024-03-23T06:13:28;16.60;;;7.57;;
50803;SDS011;37205;51.434;6.756;2024-03-23T06:15:55;19.60;;;7.20;;
50803;SDS011;37205;51.434;6.756;2024-03-23T06:18:22;23.38;;;7.70;;
50803;SDS011;37205;51.434;6.756;2024-03-23T06:20:47;18.77;;;8.00;;
50803;SDS011;37205;51.434;6.756;2024-03-23T06:23:13;18.90;;;8.40;;
50803;SDS011;37205;51.434;6.756;2024-03-23T06:25:39;19.33;;;8.88;;
50803;SDS011;37205;51.434;6.756;2024-03-23T06:28:05;22.70;;;9.57;;
50803;SDS011;37205;51.434;6.756;2024-03-23T06:30:31;26.27;;;9.95;;
50803;SDS011;37205;51.434;6.756;2024-03-23T06:32:57;27.58;;;10.88;;
50803;SDS011;37205;51.434;6.756;2024-03-23T06:35:22;25.23;;;10.18;;
50803;SDS011;37205;51.434;6.756;2024-03-23T06:37:48;25.40;;;11.07;;
50803;SDS011;37205;51.434;6.756;2024-03-23T06:40:14;28.50;;;11.18;;
50803;SDS011;37205;51.434;6.756;2024-03-23T06:42:39;25.10;;;10.10;;
50803;SDS011;37205;51.434;6.756;2024-03-23T06:45:05;22.52;;;10.93;;
50803;SDS011;37205;51.434;6.756;2024-03-23T06:47:31;24.88;;;11.63;;
50803;SDS011;37205;51.434;6.756;2024-03-23T06:49:57;25.73;;;11.43;;
50803;SDS011;37205;51.434;6.756;2024-03-23T06:52:26;24.17;;;12.25;;
50803;SDS011;37205;51.434;6.756;2024-03-23T06:54:52;23.90;;;11.00;;
50803;SDS011;37205;51.434;6.756;2024-03-23T06:57:18;21.85;;;11.10;;
50803;SDS011;37205;51.434;6.756;2024-03-23T06:59:43;27.75;;;11.80;;
50803;SDS011;37205;51.434;6.756;2024-03-23T07:02:09;27.15;;;11.90;;
50803;SDS011;37205;51.434;6.756;2024-03-23T07:04:34;26.23;;;12.35;;
50803;SDS011;37205;51.434;6.756;2024-03-23T07:07:00;25.20;;;11.88;;
50803;SDS011;37205;51.434;6.756;2024-03-23T07:09:27;24.80;;;11.48;;
50803;SDS011;37205;51.434;6.756;2024-03-23T07:11:54;24.55;;;10.85;;
50803;SDS011;37205;51.434;6.756;2024-03-23T07:14:21;29.88;;;11.55;;
50803;SDS011;37205;51.434;6.756;2024-03-23T07:16:46;22.38;;;10.48;;
50803;SDS011;37205;51.434;6.756;2024-03-23T07:19:14;18.88;;;9.88;;
50803;SDS011;37205;51.434;6.756;2024-03-23T07:21:41;24.23;;;9.70;;
50803;SDS011;37205;51.434;6.756;2024-03-23T07:24:07;17.52;;;9.38;;
50803;SDS011;37205;51.434;6.756;2024-03-23T07:26:32;20.70;;;8.55;;
50803;SDS011;37205;51.434;6.756;2024-03-23T07:28:58;22.13;;;9.57;;
50803;SDS011;37205;51.434;6.756;2024-03-23T07:31:23;20.88;;;9.90;;
50803;SDS011;37205;51.434;6.756;2024-03-23T07:33:50;22.95;;;8.93;;
50803;SDS011;37205;51.434;6.756;2024-03-23T07:36:15;21.15;;;9.20;;
50803;SDS011;37205;51.434;6.756;2024-03-23T07:38:41;23.23;;;8.82;;
50803;SDS011;37205;51.434;6.756;2024-03-23T07:41:10;22.98;;;8.75;;
50803;SDS011;37205;51.434;6.756;2024-03-23T07:43:39;19.02;;;8.15;;
50803;SDS011;37205;51.434;6.756;2024-03-23T07:46:05;22.40;;;8.10;;
50803;SDS011;37205;51.434;6.756;2024-03-23T07:48:31;18.98;;;7.60;;
50803;SDS011;37205;51.434;6.756;2024-03-23T07:53:26;18.45;;;7.25;;
50803;SDS011;37205;51.434;6.756;2024-03-23T07:55:54;20.05;;;7.72;;
50803;SDS011;37205;51.434;6.756;2024-03-23T07:58:23;20.08;;;7.22;;
50803;SDS011;37205;51.434;6.756;2024-03-23T08:00:49;16.95;;;7.22;;
50803;SDS011;37205;51.434;6.756;2024-03-23T08:03:15;16.42;;;6.72;;
50803;SDS011;37205;51.434;6.756;2024-03-23T08:05:40;17.80;;;7.10;;
50803;SDS011;37205;51.434;6.756;2024-03-23T08:08:06;19.08;;;6.40;;
50803;SDS011;37205;51.434;6.756;2024-03-23T08:10:32;14.77;;;6.35;;
50803;SDS011;37205;51.434;6.756;2024-03-23T08:12:57;16.95;;;6.18;;
50803;SDS011;37205;51.434;6.756;2024-03-23T08:15:23;13.95;;;5.90;;
50803;SDS011;37205;51.434;6.756;2024-03-23T08:17:49;18.13;;;5.82;;
50803;SDS011;37205;51.434;6.756;2024-03-23T08:20:15;14.38;;;5.75;;
50803;SDS011;37205;51.434;6.756;2024-03-23T08:22:40;12.30;;;5.32;;
50803;SDS011;37205;51.434;6.756;2024-03-23T08:25:06;13.57;;;5.75;;
50803;SDS011;37205;51.434;6.756;2024-03-23T08:27:31;16.40;;;4.97;;
50803;SDS011;37205;51.434;6.756;2024-03-23T08:29:58;13.00;;;5.20;;
50803;SDS011;37205;51.434;6.756;2024-03-23T08:32:23;15.90;;;5.70;;
50803;SDS011;37205;51.434;6.756;2024-03-23T08:34:49;17.45;;;5.50;;
50803;SDS011;37205;51.434;6.756;2024-03-23T08:37:14;9.95;;;3.78;;
50803;SDS011;37205;51.434;6.756;2024-03-23T08:39:40;8.60;;;3.25;;
50803;SDS011;37205;51.434;6.756;2024-03-23T08:42:08;7.47;;;2.50;;
50803;SDS011;37205;51.434;6.756;2024-03-23T08:44:33;7.32;;;2.78;;
50803;SDS011;37205;51.434;6.756;2024-03-23T08:46:59;7.00;;;2.67;;
50803;SDS011;37205;51.434;6.756;2024-03-23T08:49:24;11.10;;;3.53;;
50803;SDS011;37205;51.434;6.756;2024-03-23T08:51:50;12.32;;;2.90;;
50803;SDS011;37205;51.434;6.756;2024-03-23T08:54:16;6.18;;;2.45;;
50803;SDS011;37205;51.434;6.756;2024-03-23T08:56:42;6.82;;;2.67;;
50803;SDS011;37205;51.434;6.756;2024-03-23T08:59:07;11.05;;;3.10;;
50803;SDS011;37205;51.434;6.756;2024-03-23T09:01:32;13.13;;;4.07;;
50803;SDS011;37205;51.434;6.756;2024-03-23T09:03:58;9.55;;;3.42;;
50803;SDS011;37205;51.434;6.756;2024-03-23T09:06:24;9.85;;;4.10;;
50803;SDS011;37205;51.434;6.756;2024-03-23T09:08:49;11.70;;;4.55;;
50803;SDS011;37205;51.434;6.756;2024-03-23T09:11:15;13.82;;;4.85;;
50803;SDS011;37205;51.434;6.756;2024-03-23T09:13:40;12.13;;;6.32;;
50803;SDS011;37205;51.434;6.756;2024-03-23T09:16:09;12.52;;;5.43;;
50803;SDS011;37205;51.434;6.756;2024-03-23T09:18:35;13.73;;;5.78;;
50803;SDS011;37205;51.434;6.756;2024-03-23T09:21:04;12.23;;;5.32;;
50803;SDS011;37205;51.434;6.756;2024-03-23T09:23:36;13.50;;;5.72;;
50803;SDS011;37205;51.434;6.756;2024-03-23T09:26:04;10.93;;;5.22;;
50803;SDS011;37205;51.434;6.756;2024-03-23T09:28:32;11.48;;;5.18;;
50803;SDS011;37205;51.434;6.756;2024-03-23T09:33:30;12.93;;;4.32;;
50803;SDS011;37205;51.434;6.756;2024-03-23T09:35:56;11.35;;;4.53;;
50803;SDS011;37205;51.434;6.756;2024-03-23T09:38:24;13.30;;;4.30;;
50803;SDS011;37205;51.434;6.756;2024-03-23T09:40:52;10.65;;;3.42;;
50803;SDS011;37205;51.434;6.756;2024-03-23T09:43:18;11.52;;;3.75;;
50803;SDS011;37205;51.434;6.756;2024-03-23T09:45:44;11.75;;;3.80;;
50803;SDS011;37205;51.434;6.756;2024-03-23T09:48:10;10.80;;;2.72;;
50803;SDS011;37205;51.434;6.756;2024-03-23T09:50:40;8.90;;;3.00;;
50803;SDS011;37205;51.434;6.756;2024-03-23T09:53:06;11.13;;;3.42;;
50803;SDS011;37205;51.434;6.756;2024-03-23T09:55:33;12.30;;;3.65;;
50803;SDS011;37205;51.434;6.756;2024-03-23T09:58:00;9.35;;;2.65;;
50803;SDS011;37205;51.434;6.756;2024-03-23T10:00:25;11.32;;;3.08;;
50803;SDS011;37205;51.434;6.756;2024-03-23T10:02:51;11.45;;;2.50;;
50803;SDS011;37205;51.434;6.756;2024-03-23T10:05:22;12.27;;;2.60;;
50803;SDS011;37205;51.434;6.756;2024-03-23T10:07:49;11.32;;;2.40;;
50803;SDS011;37205;51.434;6.756;2024-03-23T10:10:15;6.65;;;2.35;;
50803;SDS011;37205;51.434;6.756;2024-03-23T10:12:45;9.15;;;2.25;;
50803;SDS011;37205;51.434;6.756;2024-03-23T10:15:22;7.47;;;2.33;;
50803;SDS011;37205;51.434;6.756;2024-03-23T10:17:49;9.50;;;2.65;;
50803;SDS011;37205;51.434;6.756;2024-03-23T10:20:21;9.05;;;2.63;;
50803;SDS011;37205;51.434;6.756;2024-03-23T10:22:50;9.45;;;2.85;;
50803;SDS011;37205;51.434;6.756;2024-03-23T10:25:24;9.05;;;2.67;;
50803;SDS011;37205;51.434;6.756;2024-03-23T10:27:59;9.95;;;2.70;;
50803;SDS011;37205;51.434;6.756;2024-03-23T10:30:25;11.00;;;2.63;;
50803;SDS011;37205;51.434;6.756;2024-03-23T10:33:06;9.43;;;2.10;;
50803;SDS011;37205;51.434;6.756;2024-03-23T10:35:38;13.48;;;1.52;;
50803;SDS011;37205;51.434;6.756;2024-03-23T10:38:06;7.80;;;1.15;;
50803;SDS011;37205;51.434;6.756;2024-03-23T10:40:36;4.90;;;0.80;;
50803;SDS011;37205;51.434;6.756;2024-03-23T10:43:04;5.13;;;1.02;;
50803;SDS011;37205;51.434;6.756;2024-03-23T10:45:33;4.13;;;0.80;;
50803;SDS011;37205;51.434;6.756;2024-03-23T10:47:58;2.80;;;0.90;;
50803;SDS011;37205;51.434;6.756;2024-03-23T10:50:24;4.82;;;1.10;;
50803;SDS011;37205;51.434;6.756;2024-03-23T10:52:50;5.15;;;1.15;;
50803;SDS011;37205;51.434;6.756;2024-03-23T10:55:18;3.95;;;1.02;;
50803;SDS011;37205;51.434;6.756;2024-03-23T10:57:55;3.50;;;0.90;;
50803;SDS011;37205;51.434;6.756;2024-03-23T11:00:23;4.28;;;1.50;;
50803;SDS011;37205;51.434;6.756;2024-03-23T11:02:49;4.40;;;1.30;;
50803;SDS011;37205;51.434;6.756;2024-03-23T11:07:49;5.72;;;1.50;;
50803;SDS011;37205;51.434;6.756;2024-03-23T11:10:30;7.05;;;1.77;;
50803;SDS011;37205;51.434;6.756;2024-03-23T11:12:58;7.05;;;2.10;;
50803;SDS011;37205;51.434;6.756;2024-03-23T11:15:43;3.85;;;1.60;;
50803;SDS011;37205;51.434;6.756;2024-03-23T11:18:09;5.75;;;1.90;;
50803;SDS011;37205;51.434;6.756;2024-03-23T11:20:35;6.82;;;2.35;;
50803;SDS011;37205;51.434;6.756;2024-03-23T11:23:01;5.57;;;2.00;;
50803;SDS011;37205;51.434;6.756;2024-03-23T11:25:27;6.55;;;2.67;;
50803;SDS011;37205;51.434;6.756;2024-03-23T11:27:57;7.70;;;2.90;;
50803;SDS011;37205;51.434;6.756;2024-03-23T11:30:36;5.60;;;2.72;;
50803;SDS011;37205;51.434;6.756;2024-03-23T11:33:05;6.90;;;2.42;;
50803;SDS011;37205;51.434;6.756;2024-03-23T11:35:34;10.32;;;3.30;;
50803;SDS011;37205;51.434;6.756;2024-03-23T11:38:09;9.30;;;3.08;;
50803;SDS011;37205;51.434;6.756;2024-03-23T11:40:36;6.70;;;2.70;;
50803;SDS011;37205;51.434;6.756;2024-03-23T11:43:06;6.32;;;2.17;;
50803;SDS011;37205;51.434;6.756;2024-03-23T11:48:09;3.85;;;1.23;;
50803;SDS011;37205;51.434;6.756;2024-03-23T11:50:37;7.25;;;1.25;;
50803;SDS011;37205;51.434;6.756;2024-03-23T11:55:51;5.03;;;1.52;;
50803;SDS011;37205;51.434;6.756;2024-03-23T11:58:20;6.28;;;1.70;;
50803;SDS011;37205;51.434;6.756;2024-03-23T12:03:21;6.93;;;1.63;;
50803;SDS011;37205;51.434;6.756;2024-03-23T12:05:51;8.38;;;2.38;;
50803;SDS011;37205;51.434;6.756;2024-03-23T12:08:24;5.05;;;1.58;;
50803;SDS011;37205;51.434;6.756;2024-03-23T12:11:13;11.13;;;3.85;;
50803;SDS011;37205;51.434;6.756;2024-03-23T12:13:41;22.67;;;8.50;;
50803;SDS011;37205;51.434;6.756;2024-03-23T12:18:42;14.48;;;5.38;;
50803;SDS011;37205;51.434;6.756;2024-03-23T12:21:12;15.63;;;5.10;;
50803;SDS011;37205;51.434;6.756;2024-03-23T12:23:41;11.52;;;3.25;;
50803;SDS011;37205;51.434;6.756;2024-03-23T12:26:07;6.43;;;2.20;;
50803;SDS011;37205;51.434;6.756;2024-03-23T12:28:33;6.85;;;1.80;;
50803;SDS011;37205;51.434;6.756;2024-03-23T12:30:59;7.25;;;1.80;;
50803;SDS011;37205;51.434;6.756;2024-03-23T12:33:25;7.43;;;1.95;;
50803;SDS011;37205;51.434;6.756;2024-03-23T12:35:51;4.03;;;2.20;;
50803;SDS011;37205;51.434;6.756;2024-03-23T12:38:16;5.57;;;1.60;;
50803;SDS011;37205;51.434;6.756;2024-03-23T12:40:46;5.18;;;1.42;;
50803;SDS011;37205;51.434;6.756;2024-03-23T12:43:15;5.00;;;1.83;;
50803;SDS011;37205;51.434;6.756;2024-03-23T12:45:41;7.10;;;2.20;;
50803;SDS011;37205;51.434;6.756;2024-03-23T12:48:06;9.05;;;1.95;;
50803;SDS011;37205;51.434;6.756;2024-03-23T12:50:32;6.53;;;1.60;;
50803;SDS011;37205;51.434;6.756;2024-03-23T12:52:58;5.78;;;1.30;;
50803;SDS011;37205;51.434;6.756;2024-03-23T12:55:23;4.88;;;2.35;;
50803;SDS011;37205;51.434;6.756;2024-03-23T12:57:49;4.82;;;1.45;;
50803;SDS011;37205;51.434;6.756;2024-03-23T13:00:14;8.20;;;4.20;;
50803;SDS011;37205;51.434;6.756;2024-03-23T13:02:44;4.50;;;1.17;;
50803;SDS011;37205;51.434;6.756;2024-03-23T13:05:09;4.63;;;1.38;;
50803;SDS011;37205;51.434;6.756;2024-03-23T13:07:35;3.95;;;1.20;;
50803;SDS011;37205;51.434;6.756;2024-03-23T13:10:02;5.95;;;1.50;;
50803;SDS011;37205;51.434;6.756;2024-03-23T13:12:28;6.18;;;1.77;;
50803;SDS011;37205;51.434;6.756;2024-03-23T13:14:54;8.45;;;1.80;;
50803;SDS011;37205;51.434;6.756;2024-03-23T13:17:19;4.97;;;1.75;;
50803;SDS011;37205;51.434;6.756;2024-03-23T13:19:45;7.47;;;2.30;;
50803;SDS011;37205;51.434;6.756;2024-03-23T13:22:10;8.73;;;3.75;;
50803;SDS011;37205;51.434;6.756;2024-03-23T13:24:36;18.48;;;7.03;;
50803;SDS011;37205;51.434;6.756;2024-03-23T13:27:02;4.72;;;1.50;;
50803;SDS011;37205;51.434;6.756;2024-03-23T13:29:29;7.10;;;1.80;;
50803;SDS011;37205;51.434;6.756;2024-03-23T13:31:55;5.60;;;1.35;;
50803;SDS011;37205;51.434;6.756;2024-03-23T13:34:20;3.72;;;1.40;;
50803;SDS011;37205;51.434;6.756;2024-03-23T13:36:46;4.18;;;1.40;;
50803;SDS011;37205;51.434;6.756;2024-03-23T13:39:12;3.78;;;0.80;;
50803;SDS011;37205;51.434;6.756;2024-03-23T13:41:39;4.30;;;1.30;;
50803;SDS011;37205;51.434;6.756;2024-03-23T13:44:06;2.72;;;0.77;;
50803;SDS011;37205;51.434;6.756;2024-03-23T13:46:32;5.25;;;1.85;;
50803;SDS011;37205;51.434;6.756;2024-03-23T13:48:58;5.47;;;1.52;;
50803;SDS011;37205;51.434;6.756;2024-03-23T13:51:25;3.28;;;0.80;;
50803;SDS011;37205;51.434;6.756;2024-03-23T13:53:54;5.60;;;1.08;;
50803;SDS011;37205;51.434;6.756;2024-03-23T13:56:21;2.72;;;0.75;;
50803;SDS011;37205;51.434;6.756;2024-03-23T13:58:49;2.78;;;0.75;;
50803;SDS011;37205;51.434;6.756;2024-03-23T14:01:15;4.85;;;0.88;;
50803;SDS011;37205;51.434;6.756;2024-03-23T14:03:41;4.43;;;1.05;;
50803;SDS011;37205;51.434;6.756;2024-03-23T14:06:08;4.68;;;1.38;;
50803;SDS011;37205;51.434;6.756;2024-03-23T14:08:34;4.70;;;1.00;;
50803;SDS011;37205;51.434;6.756;2024-03-23T14:11:04;7.22;;;1.20;;
50803;SDS011;37205;51.434;6.756;2024-03-23T14:13:36;4.40;;;1.30;;
50803;SDS011;37205;51.434;6.756;2024-03-23T14:16:02;5.30;;;1.20;;
50803;SDS011;37205;51.434;6.756;2024-03-23T14:18:28;3.85;;;1.20;;
50803;SDS011;37205;51.434;6.756;2024-03-23T14:20:57;4.53;;;1.15;;
50803;SDS011;37205;51.434;6.756;2024-03-23T14:23:27;2.90;;;0.88;;
50803;SDS011;37205;51.434;6.756;2024-03-23T14:25:59;3.67;;;1.00;;
50803;SDS011;37205;51.434;6.756;2024-03-23T14:28:25;4.03;;;1.10;;
50803;SDS011;37205;51.434;6.756;2024-03-23T14:30:51;4.72;;;1.25;;
50803;SDS011;37205;51.434;6.756;2024-03-23T14:33:20;3.80;;;1.08;;
50803;SDS011;37205;51.434;6.756;2024-03-23T14:35:55;5.25;;;1.25;;
50803;SDS011;37205;51.434;6.756;2024-03-23T14:38:22;5.05;;;1.30;;
50803;SDS011;37205;51.434;6.756;2024-03-23T14:40:47;5.05;;;1.02;;
50803;SDS011;37205;51.434;6.756;2024-03-23T14:43:13;5.45;;;1.05;;
50803;SDS011;37205;51.434;6.756;2024-03-23T14:45:49;2.55;;;0.95;;
50803;SDS011;37205;51.434;6.756;2024-03-23T14:48:33;3.10;;;0.73;;
50803;SDS011;37205;51.434;6.756;2024-03-23T14:50:59;7.95;;;1.17;;
50803;SDS011;37205;51.434;6.756;2024-03-23T14:53:25;6.35;;;1.52;;
50803;SDS011;37205;51.434;6.756;2024-03-23T14:55:54;5.38;;;1.38;;
50803;SDS011;37205;51.434;6.756;2024-03-23T14:58:20;4.63;;;1.00;;
50803;SDS011;37205;51.434;6.756;2024-03-23T15:00:45;3.80;;;1.02;;
50803;SDS011;37205;51.434;6.756;2024-03-23T15:03:11;3.70;;;1.10;;
50803;SDS011;37205;51.434;6.756;2024-03-23T15:05:36;5.03;;;1.65;;
50803;SDS011;37205;51.434;6.756;2024-03-23T15:08:02;4.60;;;1.52;;
50803;SDS011;37205;51.434;6.756;2024-03-23T15:10:28;5.35;;;1.40;;
50803;SDS011;37205;51.434;6.756;2024-03-23T15:12:53;5.20;;;1.27;;
50803;SDS011;37205;51.434;6.756;2024-03-23T15:15:19;5.32;;;1.33;;
50803;SDS011;37205;51.434;6.756;2024-03-23T15:17:44;3.63;;;1.17;;
50803;SDS011;37205;51.434;6.756;2024-03-23T15:20:10;6.55;;;1.60;;
50803;SDS011;37205;51.434;6.756;2024-03-23T15:22:37;7.22;;;2.53;;
50803;SDS011;37205;51.434;6.756;2024-03-23T15:25:02;9.48;;;2.63;;
50803;SDS011;37205;51.434;6.756;2024-03-23T15:27:28;4.40;;;1.20;;
50803;SDS011;37205;51.434;6.756;2024-03-23T15:29:55;2.50;;;0.90;;
50803;SDS011;37205;51.434;6.756;2024-03-23T15:32:22;4.25;;;1.42;;
50803;SDS011;37205;51.434;6.756;2024-03-23T15:34:48;3.95;;;1.05;;
50803;SDS011;37205;51.434;6.756;2024-03-23T15:37:13;2.95;;;1.00;;
50803;SDS011;37205;51.434;6.756;2024-03-23T15:39:39;4.65;;;1.35;;
50803;SDS011;37205;51.434;6.756;2024-03-23T15:42:06;5.22;;;1.33;;
50803;SDS011;37205;51.434;6.756;2024-03-23T15:44:32;5.43;;;1.50;;
50803;SDS011;37205;51.434;6.756;2024-03-23T15:46:58;4.90;;;1.23;;